Terminal Aerodrome Forecast
Issued by NWS

Home | Current Version | Previous Version | Graphics & Text | Print | Product List | Glossary On
Versions: 1 2 3 4 5 6 7 8 9 10 11 12 13 14 15 16 17
000
FTUS43 KGRB 271725
TAFAUW
TAF
KAUW 271725Z 2718/2818 23010KT P6SM SCT060 SCT200
     FM281000 17007KT P6SM BKN150 WS020/20035KT
     FM281200 17009KT P6SM TSRA OVC070CB WS020/20035KT PROB30
      2812/2814 5SM TSRA OVC040CB
     FM281400 17011KT P6SM TSRA OVC028CB
     FM281500 17011G19KT P6SM TSRA OVC011CB=

USA.gov is the U.S. government's official web portal to all federal, state and local government web resources and services.